Auance, South Dakota
Current Conditions -  °F | °C
As of 5:58 PM on Tuesday 25 Nov 2014 (Local Time) from KRCA Reporting Station
Few Clouds Few Clouds  
Wind Chill: 26°   Ceiling: Unl
Heat Index: 36°   Visibility: 10mi
Dew Point: 25°   Wind: 17mph
Humidity: 65%   Direction: 320°NW
Pressure: 29.86"   Gusts: NA
Location:  44.8511°N, 102.128°W
Report Text: KRCA 260058Z 32015KT 10SM FEW060 02/M04 A2986 RMK AO2A SLP140 T00221038 $
Loading
Personal Weather Stations






























Interactive Weather Map New forecast layout! Learn more

10-Day Weather Forecast

Advertisements
Track Severe Weather on mobile